Time;durP1;ratioP1;P1;durP2;ratioP2;P2;SDS_P1;SDS_P2;PMS_P1;PMS_P2;Temp;Humidity;BMP_temperature;BMP_pressure;BME280_temperature;BME280_humidity;BME280_pressure;Samples;Min_cycle;Max_cycle;Signal;HPM_P1;HPM_P2
2023/06/11 00:00:20;;;;;;;14.02;9.15;;;17.60;99.90;;;;;;5057257;28;20048;-83
2023/06/11 00:02:53;;;;;;;15.10;8.27;;;;;;;;;;5057188;28;20052;-83
2023/06/11 00:05:19;;;;;;;12.82;8.32;;;;;;;;;;5041877;28;20103;-83
2023/06/11 00:07:48;;;;;;;15.02;7.75;;;;;;;;;;5057045;28;20048;-84
2023/06/11 00:10:14;;;;;;;10.43;7.65;;;;;;;;;;5057278;28;20412;-85
2023/06/11 00:12:41;;;;;;;17.45;7.80;;;;;;;;;;5074136;28;20538;-84
2023/06/11 00:15:07;;;;;;;10.73;7.40;;;17.80;99.90;;;;;;5073490;28;20041;-83
2023/06/11 00:17:33;;;;;;;11.93;6.78;;;;;;;;;;5056726;28;20051;-85
2023/06/11 00:20:01;;;;;;;13.15;7.13;;;17.70;99.90;;;;;;5073607;28;20087;-85
2023/06/11 00:22:31;;;;;;;18.52;8.43;;;;;;;;;;5056609;28;20102;-83
2023/06/11 00:24:57;;;;;;;10.45;7.45;;;;;;;;;;5056752;28;20508;-84
2023/06/11 00:27:23;;;;;;;11.80;6.78;;;;;;;;;;5073536;28;20044;-81
2023/06/11 00:29:49;;;;;;;13.27;8.07;;;;;;;;;;5056705;28;20075;-84
2023/06/11 00:32:15;;;;;;;11.20;7.10;;;;;;;;;;5073147;28;20048;-83
2023/06/11 00:34:41;;;;;;;11.98;7.45;;;;;;;;;;5039936;28;20044;-84
2023/06/11 00:37:08;;;;;;;13.57;7.50;;;;;;;;;;5056358;28;20049;-81
2023/06/11 00:39:35;;;;;;;10.35;7.13;;;;;;;;;;5056330;28;20056;-81
2023/06/11 00:42:01;;;;;;;13.15;7.63;;;;;;;;;;5056206;28;20048;-80
2023/06/11 00:44:29;;;;;;;11.60;7.90;;;;;;;;;;5039684;28;20052;-81
2023/06/11 00:46:57;;;;;;;14.35;7.25;;;17.90;99.90;;;;;;5056131;28;20048;-81
2023/06/11 00:49:24;;;;;;;13.30;6.93;;;17.70;99.90;;;;;;5056150;28;20045;-80
2023/06/11 00:51:50;;;;;;;12.98;7.95;;;17.90;99.90;;;;;;5056476;28;20052;-81
2023/06/11 00:54:16;;;;;;;15.93;8.48;;;;;;;;;;5055091;28;20047;-80
2023/06/11 00:56:43;;;;;;;8.95;8.02;;;17.90;99.90;;;;;;5055875;28;20040;-81
2023/06/11 00:59:10;;;;;;;12.45;7.63;;;;;;;;;;5072836;28;20052;-81
2023/06/11 01:01:43;;;;;;;9.55;7.30;;;18.00;99.90;;;;;;5056210;28;20098;-81
2023/06/11 01:04:23;;;;;;;9.68;6.57;;;17.80;99.90;;;;;;5055863;28;20044;-81
2023/06/11 01:06:54;;;;;;;8.82;7.65;;;18.10;99.90;;;;;;5072397;28;20056;-79
2023/06/11 01:09:22;;;;;;;10.55;7.82;;;18.10;99.90;;;;;;5072314;28;20051;-80
2023/06/11 01:11:53;;;;;;;10.82;8.07;;;18.20;99.90;;;;;;5055752;28;20044;-80
2023/06/11 01:14:19;;;;;;;11.98;7.75;;;;;;;;;;5039819;28;20393;-81
2023/06/11 01:17:05;;;;;;;21.85;8.30;;;18.00;99.90;;;;;;5055738;28;20040;-82
2023/06/11 01:19:37;;;;;;;13.52;7.97;;;18.20;99.90;;;;;;5072098;28;20056;-81
2023/06/11 01:22:30;;;;;;;9.93;7.43;;;18.20;99.90;;;;;;5072192;28;20095;-81
2023/06/11 01:25:08;;;;;;;11.05;8.18;;;18.20;99.90;;;;;;5072132;28;20044;-81
2023/06/11 01:27:49;;;;;;;12.68;7.43;;;18.00;99.90;;;;;;5072052;28;20131;-80
2023/06/11 01:30:20;;;;;;;9.48;7.20;;;18.10;99.90;;;;;;5072319;28;20224;-81
2023/06/11 01:32:55;;;;;;;10.98;7.82;;;17.90;99.90;;;;;;5055281;28;20036;-81
2023/06/11 01:35:21;;;;;;;10.98;8.18;;;;;;;;;;5072316;28;20127;-81
2023/06/11 01:37:55;;;;;;;11.52;8.55;;;17.90;99.90;;;;;;5055461;28;20088;-81
2023/06/11 01:40:22;;;;;;;13.70;8.57;;;;;;;;;;5071900;28;20049;-81
2023/06/11 01:42:48;;;;;;;11.95;9.05;;;;;;;;;;5055229;28;20087;-81
2023/06/11 01:45:13;;;;;;;13.75;7.75;;;17.90;99.90;;;;;;5072264;28;20044;-80
2023/06/11 01:47:40;;;;;;;11.80;9.52;;;17.70;99.90;;;;;;5022326;28;20037;-80
2023/06/11 01:50:06;;;;;;;12.68;9.15;;;18.00;99.90;;;;;;5055300;28;20051;-80
2023/06/11 01:52:32;;;;;;;9.15;7.75;;;17.90;99.90;;;;;;5071877;28;20048;-81
2023/06/11 01:54:58;;;;;;;14.27;8.90;;;17.80;99.90;;;;;;5055079;28;20036;-81
2023/06/11 01:57:23;;;;;;;13.98;9.23;;;18.10;99.90;;;;;;5071595;28;20095;-81
2023/06/11 01:59:49;;;;;;;9.50;8.48;;;;;;;;;;5038564;28;20051;-80
2023/06/11 02:02:16;;;;;;;14.30;8.60;;;;;;;;;;5038714;28;20044;-81
2023/06/11 02:04:41;;;;;;;14.00;8.60;;;18.00;99.90;;;;;;5072548;28;20051;-80
2023/06/11 02:07:07;;;;;;;13.52;8.18;;;17.80;99.90;;;;;;5059217;28;20045;-80
2023/06/11 02:09:34;;;;;;;14.00;9.07;;;;;;;;;;5075991;28;20297;-80
2023/06/11 02:12:00;;;;;;;11.45;8.63;;;;;;;;;;5075967;28;20127;-80
2023/06/11 02:14:26;;;;;;;14.93;8.52;;;17.70;99.90;;;;;;5075631;28;20044;-79
2023/06/11 02:16:51;;;;;;;11.93;9.63;;;17.60;99.90;;;;;;5058944;28;20090;-82
2023/06/11 02:19:17;;;;;;;10.77;8.43;;;;;;;;;;5026001;28;20094;-81
2023/06/11 02:21:43;;;;;;;10.65;7.97;;;17.70;99.90;;;;;;5042333;28;20041;-81
2023/06/11 02:24:09;;;;;;;14.00;9.10;;;17.70;99.90;;;;;;5059006;28;20136;-81
2023/06/11 02:26:35;;;;;;;15.10;8.70;;;17.50;99.90;;;;;;5058898;28;20044;-82
2023/06/11 02:29:01;;;;;;;15.95;10.43;;;;;;;;;;5026228;28;20048;-81
2023/06/11 02:31:28;;;;;;;13.43;8.32;;;;;;;;;;5058755;28;20093;-81
2023/06/11 02:33:54;;;;;;;12.25;9.07;;;;;;;;;;5075432;28;20067;-81
2023/06/11 02:36:20;;;;;;;15.80;9.23;;;;;;;;;;5075658;28;20453;-81
2023/06/11 02:38:46;;;;;;;10.85;8.60;;;;;;;;;;5075122;28;20520;-84
2023/06/11 02:41:12;;;;;;;14.00;9.77;;;;;;;;;;5042063;28;20048;-83
2023/06/11 02:43:38;;;;;;;12.25;9.07;;;;;;;;;;5042512;28;20097;-82
2023/06/11 02:46:04;;;;;;;11.00;9.45;;;;;;;;;;5059106;28;20559;-83
2023/06/11 02:48:30;;;;;;;11.15;10.05;;;;;;;;;;5058702;28;20032;-82
2023/06/11 02:50:56;;;;;;;14.55;10.10;;;;;;;;;;5058632;28;20049;-80
2023/06/11 02:53:22;;;;;;;13.90;9.82;;;;;;;;;;5074916;28;20520;-81
2023/06/11 02:55:48;;;;;;;11.60;9.77;;;;;;;;;;5058582;28;20074;-81
2023/06/11 02:58:14;;;;;;;11.70;10.02;;;17.70;99.90;;;;;;5042219;28;20056;-81
2023/06/11 03:00:40;;;;;;;13.35;10.00;;;;;;;;;;5075074;28;20044;-80
2023/06/11 03:03:06;;;;;;;12.35;10.73;;;;;;;;;;5058143;28;20499;-81
2023/06/11 03:05:32;;;;;;;13.73;10.23;;;;;;;;;;5074879;28;20086;-81
2023/06/11 03:07:58;;;;;;;14.65;9.57;;;;;;;;;;5057851;28;20044;-82
2023/06/11 03:10:27;;;;;;;15.05;9.55;;;;;;;;;;5074577;28;20041;-81
2023/06/11 03:12:56;;;;;;;11.65;9.63;;;17.30;99.90;;;;;;5058178;28;20577;-80
2023/06/11 03:15:22;;;;;;;12.80;11.07;;;;;;;;;;5042073;28;20072;-81
2023/06/11 03:17:49;;;;;;;13.27;10.40;;;;;;;;;;5056623;28;20096;-80
2023/06/11 03:20:14;;;;;;;13.25;10.70;;;17.40;99.90;;;;;;5057803;28;20093;-81
2023/06/11 03:22:40;;;;;;;11.48;10.00;;;;;;;;;;5074939;28;20049;-81
2023/06/11 03:25:06;;;;;;;12.45;11.18;;;17.20;99.90;;;;;;5074439;28;20045;-81
2023/06/11 03:27:32;;;;;;;12.95;9.75;;;;;;;;;;5074355;28;20051;-80
2023/06/11 03:29:58;;;;;;;10.90;9.80;;;17.50;99.90;;;;;;5057850;28;20074;-84
2023/06/11 03:32:24;;;;;;;11.80;10.23;;;;;;;;;;5040991;28;20048;-85
2023/06/11 03:34:51;;;;;;;13.57;10.18;;;;;;;;;;5074550;28;20540;-84
2023/06/11 03:37:17;;;;;;;12.43;10.88;;;17.30;99.90;;;;;;5057739;28;20066;-85
2023/06/11 03:39:43;;;;;;;12.52;10.15;;;17.50;99.90;;;;;;5057427;28;20129;-83
2023/06/11 03:42:09;;;;;;;11.18;9.65;;;;;;;;;;5057861;28;20052;-82
2023/06/11 03:44:36;;;;;;;11.82;10.38;;;;;;;;;;5073944;28;20076;-84
2023/06/11 03:47:02;;;;;;;18.17;10.50;;;17.60;99.90;;;;;;5074049;28;20055;-85
2023/06/11 03:49:28;;;;;;;13.30;10.45;;;;;;;;;;5040749;28;20040;-85
2023/06/11 03:51:55;;;;;;;13.60;10.07;;;;;;;;;;5057608;28;20412;-86
2023/06/11 03:54:21;;;;;;;11.13;10.00;;;17.50;99.90;;;;;;5073973;28;20493;-84
2023/06/11 03:56:47;;;;;;;13.65;10.57;;;;;;;;;;5040381;28;20093;-82
2023/06/11 03:59:12;;;;;;;16.10;10.95;;;17.30;99.90;;;;;;5040908;28;20044;-82
2023/06/11 04:01:38;;;;;;;15.05;11.45;;;;;;;;;;5024038;28;20047;-84
2023/06/11 04:04:04;;;;;;;13.15;10.23;;;;;;;;;;5057324;28;20098;-82
2023/06/11 04:06:36;;;;;;;11.38;10.00;;;17.50;99.90;;;;;;5056811;28;20040;-83
2023/06/11 04:09:02;;;;;;;11.35;9.55;;;17.50;99.90;;;;;;5056895;28;20182;-83
2023/06/11 04:11:29;;;;;;;12.48;11.23;;;;;;;;;;5024246;28;20045;-84
2023/06/11 04:13:55;;;;;;;14.45;11.25;;;17.50;99.90;;;;;;5040252;28;20085;-84
2023/06/11 04:16:21;;;;;;;15.85;11.35;;;;;;;;;;5040361;28;20135;-85
2023/06/11 04:18:47;;;;;;;18.88;11.25;;;;;;;;;;5073654;28;20048;-84
2023/06/11 04:21:14;;;;;;;14.00;10.38;;;;;;;;;;5040432;28;20448;-84
2023/06/11 04:23:40;;;;;;;13.02;10.20;;;;;;;;;;5073176;28;20048;-81
2023/06/11 04:26:07;;;;;;;18.25;10.55;;;17.10;99.90;;;;;;5074908;28;20132;-83
2023/06/11 04:28:37;;;;;;;11.23;10.13;;;17.40;99.90;;;;;;5073280;28;20363;-83
2023/06/11 04:31:04;;;;;;;11.70;10.50;;;17.40;99.90;;;;;;5073210;28;20439;-84
2023/06/11 04:33:36;;;;;;;15.63;10.05;;;;;;;;;;5072912;28;20409;-83
2023/06/11 04:36:10;;;;;;;11.98;10.70;;;17.50;99.90;;;;;;5072873;28;20060;-84
2023/06/11 04:38:37;;;;;;;14.18;10.27;;;17.30;99.90;;;;;;5072781;28;20067;-84
2023/06/11 04:41:06;;;;;;;12.13;10.38;;;;;;;;;;5056319;28;20497;-81
2023/06/11 04:43:33;;;;;;;11.02;9.77;;;17.60;99.90;;;;;;5072800;28;20131;-81
2023/06/11 04:46:06;;;;;;;19.88;10.15;;;17.40;99.90;;;;;;5057186;28;20048;-81
2023/06/11 04:48:32;;;;;;;15.32;10.43;;;;;;;;;;5056460;28;20064;-82
2023/06/11 04:51:02;;;;;;;14.98;10.07;;;;;;;;;;5072791;28;20093;-82
2023/06/11 04:53:29;;;;;;;13.57;10.50;;;17.60;99.90;;;;;;5056480;28;20090;-81
2023/06/11 04:55:56;;;;;;;10.88;9.85;;;17.70;99.90;;;;;;5039193;28;20044;-80
2023/06/11 04:58:25;;;;;;;17.42;10.35;;;17.70;99.90;;;;;;5055773;28;20048;-80
2023/06/11 05:00:56;;;;;;;12.40;10.45;;;17.70;99.90;;;;;;5072476;28;20178;-80
2023/06/11 05:03:24;;;;;;;14.30;10.43;;;;;;;;;;5056184;28;20059;-80
2023/06/11 05:05:51;;;;;;;11.10;9.65;;;;;;;;;;5055912;28;20086;-80
2023/06/11 05:08:28;;;;;;;14.88;9.35;;;17.90;99.90;;;;;;5055845;28;20053;-81
2023/06/11 05:10:57;;;;;;;13.70;10.40;;;18.10;99.90;;;;;;5040128;28;20515;-81
2023/06/11 05:13:25;;;;;;;13.35;9.57;;;;;;;;;;5072385;28;20170;-85
2023/06/11 05:15:58;;;;;;;12.65;9.02;;;18.00;99.90;;;;;;5072699;28;20056;-84
2023/06/11 05:18:28;;;;;;;12.32;10.25;;;18.30;99.90;;;;;;5072217;28;20488;-83
2023/06/11 05:20:54;;;;;;;12.35;10.13;;;18.40;99.90;;;;;;5056430;28;20037;-84
2023/06/11 05:23:28;;;;;;;10.77;9.55;;;;;;;;;;5039433;28;20071;-84
2023/06/11 05:25:58;;;;;;;12.73;9.65;;;;;;;;;;5055533;28;20041;-84
2023/06/11 05:28:24;;;;;;;16.45;9.93;;;;;;;;;;5072314;28;20523;-82
2023/06/11 05:30:50;;;;;;;15.25;10.75;;;18.30;99.90;;;;;;5055800;28;20036;-82
2023/06/11 05:33:17;;;;;;;10.32;9.32;;;;;;;;;;5039515;28;20539;-81
2023/06/11 05:35:43;;;;;;;11.18;9.27;;;18.60;99.90;;;;;;5072006;28;20044;-86
2023/06/11 05:38:10;;;;;;;12.07;10.15;;;;;;;;;;5071751;28;20052;-84
2023/06/11 05:40:37;;;;;;;15.95;10.32;;;;;;;;;;5054926;28;20501;-83
2023/06/11 05:43:04;;;;;;;15.85;9.88;;;18.70;99.90;;;;;;5055144;28;20477;-84
2023/06/11 05:45:33;;;;;;;14.98;11.35;;;18.90;99.90;;;;;;5055349;28;20113;-81
2023/06/11 05:48:00;;;;;;;12.73;10.25;;;19.00;99.90;;;;;;5072066;28;20123;-81
2023/06/11 05:50:27;;;;;;;13.10;9.13;;;;;;;;;;5055247;28;20056;-81
2023/06/11 05:52:53;;;;;;;14.75;9.77;;;;;;;;;;5055361;28;20451;-81
2023/06/11 05:55:19;;;;;;;15.48;11.05;;;;;;;;;;5071770;28;20032;-81
2023/06/11 05:57:45;;;;;;;15.77;10.20;;;;;;;;;;5055387;28;20055;-82
2023/06/11 06:00:12;;;;;;;16.92;9.18;;;19.00;99.90;;;;;;5038754;28;20072;-81
2023/06/11 06:02:41;;;;;;;11.85;9.65;;;19.10;99.90;;;;;;5055541;28;20131;-80
2023/06/11 06:05:08;;;;;;;16.45;11.73;;;19.50;99.90;;;;;;5072493;28;20431;-80
2023/06/11 06:07:34;;;;;;;13.45;10.63;;;;;;;;;;5071690;28;20123;-79
2023/06/11 06:10:01;;;;;;;14.18;10.93;;;19.40;99.90;;;;;;5038465;28;20043;-80
2023/06/11 06:12:27;;;;;;;10.35;9.23;;;;;;;;;;5054929;28;20080;-81
2023/06/11 06:14:53;;;;;;;12.65;10.25;;;;;;;;;;5071575;28;20497;-81
2023/06/11 06:17:19;;;;;;;13.73;10.75;;;;;;;;;;5054920;28;20489;-80
2023/06/11 06:19:45;;;;;;;13.18;10.20;;;;;;;;;;5071495;28;20072;-81
2023/06/11 06:22:11;;;;;;;11.90;9.82;;;19.50;99.90;;;;;;5054882;28;20051;-81
2023/06/11 06:24:37;;;;;;;15.60;10.27;;;;;;;;;;5038280;28;20131;-81
2023/06/11 06:27:03;;;;;;;11.98;9.38;;;19.80;99.90;;;;;;5054840;28;20048;-81
2023/06/11 06:29:31;;;;;;;10.90;8.88;;;;;;;;;;5055013;28;20120;-81
2023/06/11 06:31:56;;;;;;;13.15;9.65;;;20.10;99.90;;;;;;5055369;28;20055;-81
2023/06/11 06:34:22;;;;;;;12.50;9.98;;;;;;;;;;5054681;28;20409;-81
2023/06/11 06:36:49;;;;;;;13.57;10.40;;;;;;;;;;5038159;28;20083;-81
2023/06/11 06:39:14;;;;;;;11.75;9.65;;;20.00;99.90;;;;;;5054896;28;20135;-83
2023/06/11 06:41:40;;;;;;;12.48;10.00;;;;;;;;;;5055882;28;20520;-83
2023/06/11 06:44:06;;;;;;;11.30;10.10;;;;;;;;;;5072725;28;20550;-81
2023/06/11 06:46:32;;;;;;;11.82;10.05;;;20.40;99.90;;;;;;5055636;28;20037;-80
2023/06/11 06:48:58;;;;;;;12.63;9.13;;;20.30;99.90;;;;;;5055486;28;20094;-80
2023/06/11 06:51:24;;;;;;;10.75;9.48;;;;;;;;;;5057461;28;20095;-80
2023/06/11 06:53:53;;;;;;;12.45;10.45;;;20.30;99.90;;;;;;5059107;28;20059;-81
2023/06/11 06:56:19;;;;;;;11.73;9.82;;;20.60;99.90;;;;;;5042732;28;20123;-79
2023/06/11 06:58:44;;;;;;;10.85;9.38;;;20.70;99.90;;;;;;5025182;28;20135;-81
2023/06/11 07:01:10;;;;;;;12.15;10.05;;;20.80;99.90;;;;;;5076257;28;20043;-80
2023/06/11 07:03:36;;;;;;;12.60;10.70;;;20.90;99.90;;;;;;5041799;28;20048;-80
2023/06/11 07:06:02;;;;;;;10.82;9.70;;;;;;;;;;5058370;28;20059;-81
2023/06/11 07:08:31;;;;;;;12.20;9.50;;;21.10;99.90;;;;;;5074688;28;20091;-81
2023/06/11 07:10:57;;;;;;;10.88;9.32;;;21.30;99.90;;;;;;5041385;28;20040;-81
2023/06/11 07:13:23;;;;;;;11.35;9.13;;;;;;;;;;5041957;28;20113;-80
2023/06/11 07:15:50;;;;;;;11.07;9.75;;;21.00;99.90;;;;;;5075127;28;20033;-80
2023/06/11 07:18:16;;;;;;;15.80;9.60;;;21.20;99.90;;;;;;5075936;28;20049;-80
2023/06/11 07:20:42;;;;;;;11.35;10.15;;;21.30;99.90;;;;;;5057796;28;20101;-81
2023/06/11 07:23:08;;;;;;;11.73;10.10;;;21.40;99.90;;;;;;5074511;28;20134;-80
2023/06/11 07:25:33;;;;;;;12.82;9.65;;;21.40;99.90;;;;;;5057699;28;20044;-81
2023/06/11 07:28:01;;;;;;;10.68;9.23;;;21.50;99.90;;;;;;5057991;28;20046;-80
2023/06/11 07:30:31;;;;;;;12.38;9.38;;;21.80;99.90;;;;;;5058911;28;20097;-79
2023/06/11 07:32:57;;;;;;;11.77;8.60;;;21.90;99.90;;;;;;5057657;28;20055;-82
2023/06/11 07:35:24;;;;;;;11.70;10.27;;;21.60;99.90;;;;;;5041085;28;20048;-81
2023/06/11 07:37:51;;;;;;;11.25;10.15;;;21.70;99.90;;;;;;5057359;28;20138;-80
2023/06/11 07:40:17;;;;;;;9.75;8.65;;;22.00;99.90;;;;;;5074330;28;20443;-82
2023/06/11 07:42:43;;;;;;;10.05;8.98;;;21.90;99.30;;;;;;5057546;28;20136;-82
2023/06/11 07:45:09;;;;;;;10.88;9.57;;;22.10;99.90;;;;;;5057461;28;20036;-83
2023/06/11 07:47:36;;;;;;;20.95;9.70;;;22.20;99.90;;;;;;5057606;28;20044;-83
2023/06/11 07:50:03;;;;;;;10.60;9.60;;;22.10;99.20;;;;;;5040831;28;20439;-84
2023/06/11 07:52:28;;;;;;;9.98;8.98;;;22.40;99.40;;;;;;5073845;28;20053;-83
2023/06/11 07:54:54;;;;;;;9.80;8.80;;;22.50;98.40;;;;;;5074001;28;20117;-82
2023/06/11 07:57:20;;;;;;;8.52;7.45;;;22.40;98.90;;;;;;5073755;28;20386;-84
2023/06/11 07:59:46;;;;;;;18.73;9.00;;;;;;;;;;5040550;28;20097;-80
2023/06/11 08:02:12;;;;;;;9.68;8.77;;;22.50;96.90;;;;;;5073137;28;20095;-81
2023/06/11 08:04:38;;;;;;;11.05;9.65;;;;;;;;;;5024042;28;20044;-81
2023/06/11 08:07:05;;;;;;;9.90;8.98;;;22.70;96.60;;;;;;5074352;28;20397;-82
2023/06/11 08:09:33;;;;;;;10.48;9.35;;;22.80;97.80;;;;;;5056877;28;20044;-80
2023/06/11 08:11:59;;;;;;;13.38;9.95;;;22.90;98.00;;;;;;5056971;28;20133;-80
2023/06/11 08:14:25;;;;;;;13.57;9.50;;;23.10;97.20;;;;;;5073379;28;20032;-80
2023/06/11 08:16:51;;;;;;;14.55;8.90;;;23.00;96.40;;;;;;5040118;28;20052;-81
2023/06/11 08:19:17;;;;;;;11.80;9.52;;;23.00;95.40;;;;;;5057214;28;20139;-82
2023/06/11 08:21:43;;;;;;;10.68;8.63;;;;;;;;;;5040008;28;20093;-82
2023/06/11 08:24:09;;;;;;;12.88;9.77;;;23.30;93.90;;;;;;5040370;28;20137;-81
2023/06/11 08:26:35;;;;;;;10.85;9.60;;;23.10;95.30;;;;;;5056597;28;20043;-82
2023/06/11 08:29:00;;;;;;;12.70;8.70;;;23.20;95.80;;;;;;5073496;28;20037;-82
2023/06/11 08:31:27;;;;;;;14.75;9.07;;;23.30;95.30;;;;;;5056466;28;20131;-82
2023/06/11 08:33:53;;;;;;;10.77;8.50;;;;;;;;;;5040230;28;20462;-85
2023/06/11 08:36:21;;;;;;;15.43;9.02;;;23.70;93.80;;;;;;5056398;28;20493;-87
2023/06/11 08:38:47;;;;;;;9.65;8.75;;;23.70;95.20;;;;;;5056773;28;20056;-87
2023/06/11 08:41:17;;;;;;;10.68;8.93;;;23.80;95.00;;;;;;5056506;28;20382;-85
2023/06/11 08:43:43;;;;;;;12.60;8.50;;;24.00;94.00;;;;;;5039921;28;20048;-82
2023/06/11 08:46:21;;;;;;;11.07;9.80;;;24.00;93.50;;;;;;5039549;28;20044;-83
2023/06/11 08:48:54;;;;;;;12.80;9.50;;;24.30;94.30;;;;;;5072725;28;20044;-84
2023/06/11 08:51:20;;;;;;;11.80;9.50;;;24.10;93.10;;;;;;5056947;28;20044;-87
2023/06/11 08:53:47;;;;;;;13.15;8.77;;;24.40;92.90;;;;;;5056152;28;20045;-78
2023/06/11 08:56:13;;;;;;;14.55;10.20;;;24.20;92.50;;;;;;5074035;28;20040;-80
2023/06/11 08:58:40;;;;;;;10.60;9.50;;;24.20;92.40;;;;;;5072882;28;20036;-81
2023/06/11 09:01:12;;;;;;;9.63;8.52;;;23.00;91.90;;;;;;5072785;28;20496;-80
2023/06/11 09:03:38;;;;;;;9.77;8.77;;;24.60;91.70;;;;;;5072833;28;20131;-80
2023/06/11 09:06:04;;;;;;;10.98;8.77;;;24.40;91.50;;;;;;5072562;28;20059;-80
2023/06/11 09:08:30;;;;;;;12.57;9.05;;;24.80;91.60;;;;;;5055721;28;20048;-80
2023/06/11 09:10:56;;;;;;;12.20;8.27;;;24.40;91.00;;;;;;5055662;28;20048;-80
2023/06/11 09:13:27;;;;;;;9.93;8.73;;;24.60;90.40;;;;;;5055728;28;20055;-78
2023/06/11 09:15:57;;;;;;;9.70;8.20;;;24.90;90.80;;;;;;5054963;28;20044;-82
2023/06/11 09:18:24;;;;;;;9.10;8.18;;;25.10;91.10;;;;;;5072143;28;20052;-78
2023/06/11 09:20:59;;;;;;;9.98;8.98;;;24.90;91.20;;;;;;5072109;28;20048;-79
2023/06/11 09:23:30;;;;;;;13.18;8.20;;;25.10;87.60;;;;;;5072036;28;20052;-80
2023/06/11 09:25:58;;;;;;;10.85;8.77;;;25.70;89.40;;;;;;5073731;28;20045;-82
2023/06/11 09:28:31;;;;;;;10.07;8.45;;;25.30;90.10;;;;;;5075685;28;20083;-81
2023/06/11 09:30:58;;;;;;;;;;;23.60;88.70;;;;;;5041347;28;20048;-80
2023/06/11 09:33:24;;;;;;;8.93;7.80;;;25.40;87.30;;;;;;5057346;28;19924;-80
2023/06/11 09:35:50;;;;;;;11.32;8.93;;;25.70;89.30;;;;;;5056615;28;20044;-80
2023/06/11 09:38:20;;;;;;;10.00;8.45;;;25.60;88.00;;;;;;5056627;28;20127;-79
2023/06/11 09:40:48;;;;;;;9.55;7.65;;;25.60;86.40;;;;;;5057130;28;20044;-78
2023/06/11 09:43:18;;;;;;;9.98;8.38;;;25.80;86.00;;;;;;5073423;28;20060;-79
2023/06/11 09:45:44;;;;;;;12.45;7.70;;;25.70;85.20;;;;;;5056098;28;20049;-81
2023/06/11 09:48:11;;;;;;;12.20;9.15;;;25.80;84.20;;;;;;5056246;28;20113;-79
2023/06/11 09:50:38;;;;;;;10.07;7.72;;;25.90;84.30;;;;;;5072426;28;20516;-79
2023/06/11 09:53:05;;;;;;;9.63;7.80;;;25.90;84.20;;;;;;5072595;28;20067;-78
2023/06/11 09:55:34;;;;;;;10.90;8.27;;;26.30;84.50;;;;;;5055898;28;20119;-80
2023/06/11 09:58:02;;;;;;;9.38;7.35;;;26.30;82.40;;;;;;5073441;28;20055;-83
2023/06/11 10:00:28;;;;;;;9.65;8.50;;;26.20;81.90;;;;;;5072907;28;20048;-81
2023/06/11 10:02:54;;;;;;;8.60;7.65;;;26.20;80.60;;;;;;5073753;28;20496;-80
2023/06/11 10:05:20;;;;;;;8.32;7.53;;;26.40;81.30;;;;;;5073988;28;20052;-81
2023/06/11 10:07:48;;;;;;;9.15;7.45;;;26.60;81.00;;;;;;5055569;28;20084;-79
2023/06/11 10:10:19;;;;;;;7.80;7.10;;;26.40;80.10;;;;;;5073209;28;20041;-79
2023/06/11 10:12:52;;;;;;;7.93;7.30;;;26.90;80.10;;;;;;5072443;28;20127;-81
2023/06/11 10:15:22;;;;;;;8.93;7.53;;;26.70;78.80;;;;;;5055622;28;20484;-81
2023/06/11 10:17:50;;;;;;;7.53;6.82;;;26.90;79.40;;;;;;5071498;28;20080;-81
2023/06/11 10:20:31;;;;;;;10.93;8.02;;;26.90;78.70;;;;;;5071803;28;20041;-79
2023/06/11 10:23:13;;;;;;;7.88;6.63;;;27.00;76.20;;;;;;5071621;28;20052;-79
2023/06/11 10:25:40;;;;;;;11.68;7.00;;;26.90;74.50;;;;;;5055758;28;20037;-79
2023/06/11 10:28:07;;;;;;;10.63;6.70;;;27.10;74.60;;;;;;5075440;28;20048;-79
2023/06/11 10:30:34;;;;;;;7.85;6.60;;;27.20;73.90;;;;;;5076630;28;20049;-78
2023/06/11 10:33:00;;;;;;;12.05;7.15;;;27.30;74.30;;;;;;5059053;28;20109;-78
2023/06/11 10:35:32;;;;;;;12.40;6.95;;;27.30;73.60;;;;;;5058858;28;20055;-79
2023/06/11 10:38:16;;;;;;;8.80;7.03;;;27.50;73.50;;;;;;5075127;28;20143;-79
2023/06/11 10:40:42;;;;;;;8.93;7.13;;;27.40;73.90;;;;;;5058656;28;20045;-78
2023/06/11 10:43:21;;;;;;;9.75;6.05;;;27.70;73.20;;;;;;5075765;28;20052;-79
2023/06/11 10:46:01;;;;;;;7.95;7.13;;;27.50;72.50;;;;;;5075718;28;20040;-82
2023/06/11 10:48:30;;;;;;;7.68;6.07;;;27.80;72.60;;;;;;5075144;28;20048;-79
2023/06/11 10:51:03;;;;;;;6.72;5.90;;;27.70;69.70;;;;;;5075784;28;20072;-79
2023/06/11 10:53:40;;;;;;;6.63;6.03;;;28.00;71.10;;;;;;5058897;28;20405;-80
2023/06/11 10:56:11;;;;;;;6.95;6.35;;;28.10;69.20;;;;;;5058342;28;20051;-80
2023/06/11 10:58:38;;;;;;;8.13;6.95;;;28.10;68.30;;;;;;5074710;28;20087;-81
2023/06/11 11:01:08;;;;;;;7.32;6.60;;;28.20;69.30;;;;;;5075079;28;20115;-80
2023/06/11 11:03:34;;;;;;;10.02;6.95;;;28.20;70.20;;;;;;5041765;28;20080;-80
2023/06/11 11:06:00;;;;;;;8.65;6.55;;;28.30;69.80;;;;;;5076062;28;20044;-80
2023/06/11 11:08:26;;;;;;;10.93;6.65;;;28.20;69.70;;;;;;5076252;28;20044;-80
2023/06/11 11:10:56;;;;;;;7.47;6.78;;;28.40;68.90;;;;;;5058074;28;20049;-80
2023/06/11 11:13:23;;;;;;;9.48;6.57;;;28.50;67.90;;;;;;5041799;28;20051;-80
2023/06/11 11:15:50;;;;;;;9.70;6.57;;;28.60;65.70;;;;;;5074717;28;20041;-81
2023/06/11 11:18:17;;;;;;;8.90;6.03;;;28.30;66.30;;;;;;5057665;28;20098;-80
2023/06/11 11:20:46;;;;;;;8.68;6.18;;;28.40;66.40;;;;;;5057920;28;20040;-80
2023/06/11 11:23:12;;;;;;;6.97;6.30;;;28.50;66.40;;;;;;5058073;28;20076;-79
2023/06/11 11:25:40;;;;;;;7.72;6.07;;;28.70;66.60;;;;;;5057779;28;20590;-80
2023/06/11 11:28:06;;;;;;;10.32;5.90;;;28.60;66.80;;;;;;5057687;28;20493;-82
2023/06/11 11:30:31;;;;;;;7.65;6.85;;;28.80;66.50;;;;;;5057563;28;20043;-81
2023/06/11 11:32:58;;;;;;;7.10;6.50;;;28.60;65.80;;;;;;5041286;28;20048;-82
2023/06/11 11:35:28;;;;;;;10.02;7.18;;;28.90;65.50;;;;;;5057621;28;20041;-80
2023/06/11 11:37:54;;;;;;;5.97;5.38;;;28.70;63.20;;;;;;5072826;28;20131;-81
2023/06/11 11:40:21;;;;;;;11.02;6.70;;;28.90;64.80;;;;;;5057434;28;20497;-81
2023/06/11 11:42:57;;;;;;;8.25;6.60;;;28.90;64.50;;;;;;5074162;28;20044;-79
2023/06/11 11:45:31;;;;;;;8.18;6.05;;;29.00;63.00;;;;;;5074415;28;20086;-80
2023/06/11 11:47:56;;;;;;;;;;;29.30;63.10;;;;;;5075414;28;20400;-83
2023/06/11 11:50:25;;;;;;;7.90;6.15;;;27.60;61.00;;;;;;5075105;28;19955;-81
2023/06/11 11:53:06;;;;;;;7.43;6.70;;;29.20;61.70;;;;;;5058274;28;20044;-81
2023/06/11 11:55:33;;;;;;;7.45;6.32;;;29.20;59.40;;;;;;5058320;28;20409;-80
2023/06/11 11:58:03;;;;;;;8.35;6.00;;;29.30;61.90;;;;;;5058323;28;20051;-82
2023/06/11 12:00:28;;;;;;;5.90;5.15;;;29.10;60.80;;;;;;5057781;28;20048;-81
2023/06/11 12:02:56;;;;;;;7.95;5.55;;;29.70;60.40;;;;;;5057591;28;20048;-81
2023/06/11 12:05:27;;;;;;;6.10;5.53;;;29.20;59.20;;;;;;5040749;28;20486;-80
2023/06/11 12:07:53;;;;;;;10.18;6.35;;;29.40;58.10;;;;;;5057024;28;20044;-81
2023/06/11 12:10:19;;;;;;;6.55;5.13;;;29.50;56.70;;;;;;5073630;28;20040;-82
2023/06/11 12:12:44;;;;;;;6.22;5.63;;;29.40;56.90;;;;;;5057021;28;20050;-80
2023/06/11 12:15:10;;;;;;;7.57;5.80;;;29.50;57.50;;;;;;5056984;28;20036;-82
2023/06/11 12:17:39;;;;;;;16.13;6.45;;;29.60;56.60;;;;;;5057276;28;20111;-79
2023/06/11 12:20:06;;;;;;;6.05;5.45;;;29.50;55.30;;;;;;5057083;28;20408;-82
2023/06/11 12:22:31;;;;;;;6.15;5.55;;;29.60;53.80;;;;;;5073780;28;20202;-81
2023/06/11 12:24:57;;;;;;;5.88;5.38;;;29.70;54.90;;;;;;5056754;28;20544;-81
2023/06/11 12:27:24;;;;;;;6.03;5.40;;;29.60;54.50;;;;;;5073334;28;20045;-81
2023/06/11 12:29:53;;;;;;;5.90;5.40;;;29.80;53.90;;;;;;5056707;28;20049;-81
2023/06/11 12:32:24;;;;;;;6.80;5.22;;;29.60;53.30;;;;;;5041067;28;20131;-82
2023/06/11 12:34:50;;;;;;;9.00;5.45;;;29.60;53.40;;;;;;5041597;28;20153;-81
2023/06/11 12:37:16;;;;;;;5.95;5.40;;;29.70;53.00;;;;;;5073210;28;20499;-81
2023/06/11 12:39:43;;;;;;;5.65;5.15;;;29.70;53.40;;;;;;5039784;28;20489;-81
2023/06/11 12:42:15;;;;;;;7.47;5.40;;;29.60;53.70;;;;;;5073040;28;20044;-82
2023/06/11 12:44:41;;;;;;;7.68;6.05;;;29.50;53.70;;;;;;5074488;28;20041;-81
2023/06/11 12:47:08;;;;;;;5.95;5.35;;;29.40;53.00;;;;;;5056422;28;20048;-81
2023/06/11 12:49:34;;;;;;;6.40;5.80;;;29.50;53.00;;;;;;5056359;28;20040;-81
2023/06/11 12:52:00;;;;;;;6.03;5.43;;;29.50;52.50;;;;;;5072849;28;20045;-80
2023/06/11 12:54:26;;;;;;;8.10;5.82;;;29.60;51.60;;;;;;5039601;28;20044;-81
2023/06/11 12:56:52;;;;;;;6.13;5.53;;;29.40;51.20;;;;;;5072590;28;20045;-80
2023/06/11 12:59:20;;;;;;;6.30;5.70;;;29.50;52.50;;;;;;5072746;28;20059;-81
2023/06/11 13:01:46;;;;;;;5.95;5.45;;;29.50;52.60;;;;;;5055890;28;20131;-80
2023/06/11 13:04:11;;;;;;;6.07;5.43;;;29.80;51.30;;;;;;5055798;28;20140;-83
2023/06/11 13:06:37;;;;;;;13.02;6.88;;;29.60;51.40;;;;;;5072525;28;20109;-83
2023/06/11 13:09:03;;;;;;;5.95;5.38;;;29.80;51.80;;;;;;5055877;28;20044;-82